Olar, SC

9:40 AM EDT on August 29, 2016 (GMT -0400)
Cypress Field Olar, SC | | Change Station

Elev 243 ft 33.19 °N, 81.18 °W | Updated 9 seconds ago

Overcast
Overcast
78.3 °F
Feels Like 81 °F
N
0.4
Wind Variable Wind from SSE
Gusts 2.5 mph

Today
High -- | Low -- °F
--% Chance of Precip.
Yesterday
High -- | Low -- °F
Precip. -- in
Pressure 30.11 in
Visibility 10.0 miles
Clouds Overcast 700 ft
Heat Index 81 °F
Dew Point 76 °F
Humidity 92%
Rainfall 0.00 in
Snow Depth Not available.
6:57 AM 7:52 PM
Waning Crescent, 8% visible
METAR KOGB 291253Z AUTO 06005KT 10SM OVC007 24/22 A3012 RMK AO2 SLP195 T02440222
Pressure 30.11 in
Visibility 10.0 miles
Clouds Overcast 700 ft
Heat Index 81 °F
Dew Point 76 °F
Humidity 92%
Rainfall 0.00 in
Snow Depth Not available.
6:57 AM 7:52 PM
Waning Crescent, 8% visible
METAR KOGB 291253Z AUTO 06005KT 10SM OVC007 24/22 A3012 RMK AO2 SLP195 T02440222

10-Day Weather Forecast

Almanac

Astronomy

Aug. 29, 2016 Rise Set
Actual Time
Civil Twilight
Nautical Twilight
Astronomical Twilight
Moon
Length of Visible Light
Length of Day
Tomorrow will be .
, % of the Moon is Illuminated

Today's Extremes

State Highs State Lows

Community

WunderPhotos

Upload Photos

1,935,817 photos uploaded!

WunderBlog® & News

Nearby

Air Quality

  Air Quality AQ Index Pollutant
Not available.

Snow Depth

Station Depth Elevation

Earthquake Activity

City Distance Mag. Time & Date
Minimum magnitude displayed is 2.5.

Coastal Water Temperatures

Place Temperature

Stations

Nearby Weather Stations

Station Location Temp. Windchill Dew Point Humidity Wind Precip. Elev Updated Type
                   

Watches & Warnings

There are currently no watches in effect.